Time;durP1;ratioP1;P1;durP2;ratioP2;P2;SDS_P1;SDS_P2;PMS_P1;PMS_P2;Temp;Humidity;BMP_temperature;BMP_pressure;BME280_temperature;BME280_humidity;BME280_pressure;Samples;Min_cycle;Max_cycle;Signal;HPM_P1;HPM_P2
2022/05/25 00:01:06;;;;;;;1.33;0.47;;;16.10;98.60;;;;;;4975729;28;20069;-78
2022/05/25 00:03:33;;;;;;;2.35;0.52;;;16.00;98.20;;;;;;4959219;28;20053;-79
2022/05/25 00:06:01;;;;;;;2.05;0.30;;;16.00;98.10;;;;;;4975828;28;20031;-79
2022/05/25 00:08:27;;;;;;;3.72;0.40;;;16.10;98.00;;;;;;4975447;28;20096;-81
2022/05/25 00:10:54;;;;;;;2.28;0.40;;;16.10;97.80;;;;;;4975712;28;20029;-78
2022/05/25 00:13:19;;;;;;;3.70;0.40;;;16.10;97.70;;;;;;4975277;28;20031;-79
2022/05/25 00:15:45;;;;;;;0.90;0.40;;;16.20;97.70;;;;;;4975142;28;20141;-78
2022/05/25 00:18:11;;;;;;;0.85;0.30;;;16.10;97.90;;;;;;4958546;28;20464;-87
2022/05/25 00:20:37;;;;;;;0.20;0.20;;;16.10;97.80;;;;;;4975312;28;20038;-78
2022/05/25 00:23:03;;;;;;;1.55;0.40;;;16.10;98.40;;;;;;4975921;28;20035;-80
2022/05/25 00:25:33;;;;;;;0.50;0.30;;;16.00;98.50;;;;;;4974496;28;20536;-79
2022/05/25 00:28:00;;;;;;;1.33;0.40;;;16.00;98.50;;;;;;4958629;28;20057;-79
2022/05/25 00:30:27;;;;;;;0.70;0.30;;;16.10;98.30;;;;;;4975251;28;20058;-79
2022/05/25 00:32:57;;;;;;;0.35;0.30;;;16.00;98.60;;;;;;4975998;28;20039;-79
2022/05/25 00:35:24;;;;;;;1.40;0.60;;;16.00;98.60;;;;;;4975210;28;20035;-79
2022/05/25 00:37:50;;;;;;;2.28;0.50;;;16.00;98.80;;;;;;4975384;28;20038;-80
2022/05/25 00:40:20;;;;;;;0.50;0.30;;;16.00;98.70;;;;;;4976046;28;20038;-77
2022/05/25 00:42:45;;;;;;;3.60;0.65;;;16.00;98.50;;;;;;4957989;28;20447;-77
2022/05/25 00:45:13;;;;;;;1.30;0.40;;;16.00;98.70;;;;;;4974916;28;20030;-76
2022/05/25 00:47:41;;;;;;;0.98;0.40;;;16.00;98.70;;;;;;4958750;28;20023;-76
2022/05/25 00:50:11;;;;;;;3.17;0.50;;;16.00;98.90;;;;;;4976248;28;20042;-76
2022/05/25 00:52:40;;;;;;;1.67;0.55;;;15.90;98.80;;;;;;4974244;28;20093;-77
2022/05/25 00:55:08;;;;;;;1.00;0.70;;;15.90;99.30;;;;;;4974928;28;20031;-76
2022/05/25 00:57:39;;;;;;;0.68;0.57;;;15.80;99.90;;;;;;4975432;28;20030;-77
2022/05/25 01:00:09;;;;;;;1.30;0.70;;;15.70;99.90;;;;;;4974724;28;20022;-76
2022/05/25 01:02:41;;;;;;;2.53;0.50;;;15.70;99.90;;;;;;4974207;28;20031;-76
2022/05/25 01:05:08;;;;;;;1.38;0.50;;;15.50;99.90;;;;;;4975714;28;20038;-76
2022/05/25 01:07:44;;;;;;;0.73;0.47;;;15.50;99.90;;;;;;4958074;28;20304;-76
2022/05/25 01:10:32;;;;;;;0.80;0.55;;;15.50;99.90;;;;;;4974316;28;20388;-77
2022/05/25 01:13:33;;;;;;;1.80;0.57;;;15.40;99.90;;;;;;4975822;28;20035;-76
2022/05/25 01:16:36;;;;;;;0.70;0.70;;;15.40;99.90;;;;;;4950312;28;20493;-77
2022/05/25 01:19:20;;;;;;;0.93;0.40;;;15.50;99.90;;;;;;4958102;28;20041;-76
2022/05/25 01:22:01;;;;;;;1.25;0.60;;;15.50;99.90;;;;;;4958438;28;20035;-76
2022/05/25 01:25:05;;;;;;;1.13;0.65;;;15.40;99.90;;;;;;4957739;28;20488;-78
2022/05/25 01:27:46;;;;;;;2.25;0.80;;;15.40;99.90;;;;;;4896596;29;20032;-78
2022/05/25 01:30:41;;;;;;;2.13;0.60;;;15.30;99.90;;;;;;4966267;28;20049;-78
2022/05/25 01:33:10;;;;;;;3.17;0.75;;;15.30;99.90;;;;;;4974453;28;20049;-78
2022/05/25 01:35:47;;;;;;;1.73;0.77;;;15.20;99.90;;;;;;4957919;28;20398;-78
2022/05/25 01:38:55;;;;;;;4.57;0.90;;;15.20;99.90;;;;;;4974130;28;20384;-78
2022/05/25 01:41:38;;;;;;;2.13;0.80;;;15.30;99.90;;;;;;4880440;29;20044;-78
2022/05/25 01:44:17;;;;;;;0.93;0.60;;;15.20;99.90;;;;;;4970765;28;20031;-77
2022/05/25 01:46:49;;;;;;;0.82;0.50;;;15.20;99.90;;;;;;4974071;28;20031;-78
2022/05/25 01:49:19;;;;;;;2.08;0.50;;;15.30;99.90;;;;;;4974002;28;20038;-78
2022/05/25 01:51:52;;;;;;;1.40;0.60;;;15.30;99.90;;;;;;4975017;28;20388;-77
2022/05/25 01:54:22;;;;;;;1.90;0.50;;;15.30;99.90;;;;;;4957162;28;20026;-79
2022/05/25 01:56:52;;;;;;;2.67;0.70;;;15.20;99.90;;;;;;4973930;28;20027;-79
2022/05/25 01:59:19;;;;;;;2.45;0.57;;;15.20;99.90;;;;;;4973515;28;20031;-80
2022/05/25 02:04:44;;;;;;;6.47;0.80;;;15.20;99.90;;;;;;4974677;28;20503;-79
2022/05/25 02:07:25;;;;;;;1.13;0.50;;;15.20;99.90;;;;;;4973804;28;20026;-78
2022/05/25 02:09:56;;;;;;;2.17;0.50;;;15.30;99.90;;;;;;4957615;28;20031;-78
2022/05/25 02:12:51;;;;;;;1.25;0.70;;;15.30;99.90;;;;;;4956974;28;20508;-78
2022/05/25 02:15:33;;;;;;;1.05;0.50;;;15.30;99.90;;;;;;4974768;28;20031;-78
2022/05/25 02:18:16;;;;;;;1.83;0.60;;;15.30;99.90;;;;;;4957556;28;20027;-79
2022/05/25 02:20:48;;;;;;;0.93;0.60;;;15.30;99.90;;;;;;4972977;28;20031;-78
2022/05/25 02:23:51;;;;;;;1.80;1.02;;;15.30;99.90;;;;;;4974491;28;20045;-78
2022/05/25 02:26:41;;;;;;;1.95;0.52;;;15.30;99.90;;;;;;4973284;28;20385;-77
2022/05/25 02:29:21;;;;;;;1.55;0.57;;;15.20;99.90;;;;;;4973213;28;20031;-78
2022/05/25 02:31:53;;;;;;;0.90;0.60;;;15.20;99.90;;;;;;4974629;28;20031;-77
2022/05/25 02:34:21;;;;;;;1.35;0.50;;;15.20;99.90;;;;;;4974214;28;20380;-84
2022/05/25 02:36:48;;;;;;;0.63;0.50;;;15.20;99.90;;;;;;4957268;28;20028;-77
2022/05/25 02:39:15;;;;;;;2.35;0.57;;;15.20;99.90;;;;;;4956797;28;20031;-77
2022/05/25 02:41:46;;;;;;;1.08;0.45;;;15.20;99.90;;;;;;4972357;28;20502;-77
2022/05/25 02:44:12;;;;;;;;;;;15.10;99.90;;;;;;4973624;28;20038;-77
2022/05/25 02:46:38;;;;;;;1.17;0.40;;;15.10;99.90;;;;;;4973809;28;20279;-77
2022/05/25 02:49:03;;;;;;;1.60;0.57;;;15.10;99.90;;;;;;4973245;28;20174;-77
2022/05/25 02:51:29;;;;;;;3.25;0.55;;;15.00;99.90;;;;;;4972465;28;20093;-77
2022/05/25 02:53:55;;;;;;;0.75;0.50;;;15.00;99.90;;;;;;4956972;28;20026;-79
2022/05/25 02:56:20;;;;;;;0.35;0.35;;;15.00;99.90;;;;;;4972973;28;20023;-84
2022/05/25 02:58:46;;;;;;;0.73;0.50;;;15.00;99.90;;;;;;4973083;28;20029;-78
2022/05/25 03:01:12;;;;;;;5.57;0.90;;;14.90;99.90;;;;;;4973272;28;20030;-78
2022/05/25 03:03:38;;;;;;;0.90;0.47;;;15.00;99.90;;;;;;4972889;28;20045;-79
2022/05/25 03:06:05;;;;;;;2.78;0.40;;;14.90;99.90;;;;;;4960955;28;20058;-79
2022/05/25 03:08:32;;;;;;;1.50;0.30;;;14.90;99.90;;;;;;4976348;28;20081;-79
2022/05/25 03:10:57;;;;;;;0.80;0.50;;;15.00;99.90;;;;;;4960970;28;20058;-79
2022/05/25 03:13:23;;;;;;;1.40;0.60;;;15.00;99.90;;;;;;4960455;28;20027;-80
2022/05/25 03:15:49;;;;;;;3.90;0.70;;;15.00;99.90;;;;;;4978144;28;20113;-79
2022/05/25 03:18:15;;;;;;;1.33;0.50;;;15.00;99.90;;;;;;4977184;28;20428;-79
2022/05/25 03:20:40;;;;;;;1.23;0.43;;;14.90;99.90;;;;;;4976100;28;20041;-79
2022/05/25 03:23:06;;;;;;;1.70;0.50;;;14.90;99.90;;;;;;4977042;28;20138;-79
2022/05/25 03:25:32;;;;;;;2.13;0.60;;;14.80;99.90;;;;;;4959921;28;20101;-79
2022/05/25 03:27:57;;;;;;;2.33;0.50;;;14.90;99.90;;;;;;4977837;28;20102;-77
2022/05/25 03:30:23;;;;;;;1.80;0.55;;;14.80;99.90;;;;;;4975901;28;20049;-78
2022/05/25 03:32:49;;;;;;;1.70;0.55;;;14.80;99.90;;;;;;4976518;28;20041;-77
2022/05/25 03:35:15;;;;;;;1.60;0.68;;;14.80;99.90;;;;;;4975922;28;20031;-77
2022/05/25 03:37:41;;;;;;;1.25;0.73;;;14.80;99.90;;;;;;4975696;28;20114;-77
2022/05/25 03:40:09;;;;;;;1.30;0.63;;;14.80;99.90;;;;;;4976082;28;20560;-77
2022/05/25 03:42:37;;;;;;;3.00;0.75;;;14.80;99.90;;;;;;4975904;28;20042;-78
2022/05/25 03:45:04;;;;;;;2.50;0.77;;;14.80;99.90;;;;;;4977419;28;20030;-78
2022/05/25 03:47:31;;;;;;;1.17;0.70;;;14.80;99.90;;;;;;4977130;28;20023;-78
2022/05/25 03:49:56;;;;;;;2.15;1.00;;;14.80;99.90;;;;;;4976083;28;20042;-78
2022/05/25 03:52:23;;;;;;;3.10;1.83;;;14.80;99.90;;;;;;4977476;28;20034;-78
2022/05/25 03:54:50;;;;;;;1.95;1.10;;;14.80;99.90;;;;;;4977520;28;20127;-78
2022/05/25 03:57:15;;;;;;;4.00;1.00;;;14.80;99.90;;;;;;4976308;28;20027;-78
2022/05/25 03:59:41;;;;;;;6.57;1.33;;;14.70;99.90;;;;;;4975649;28;20052;-78
2022/05/25 04:02:07;;;;;;;2.10;0.85;;;14.70;99.90;;;;;;4960249;28;20399;-78
2022/05/25 04:04:32;;;;;;;1.45;1.08;;;14.70;99.90;;;;;;4975526;28;20543;-79
2022/05/25 04:06:58;;;;;;;2.55;0.80;;;14.70;99.90;;;;;;4976040;28;20429;-78
2022/05/25 04:09:23;;;;;;;3.25;0.70;;;14.60;99.90;;;;;;4976008;28;20031;-78
2022/05/25 04:11:50;;;;;;;2.65;0.70;;;14.60;99.90;;;;;;4976715;28;20387;-79
2022/05/25 04:14:15;;;;;;;1.15;0.80;;;14.60;99.90;;;;;;4959760;28;20034;-78
2022/05/25 04:16:43;;;;;;;2.17;0.70;;;14.50;99.90;;;;;;4958046;28;20031;-78
2022/05/25 04:19:08;;;;;;;5.53;0.65;;;14.40;99.90;;;;;;4975652;28;20566;-78
2022/05/25 04:21:34;;;;;;;1.05;0.80;;;14.40;99.90;;;;;;4975438;28;20039;-78
2022/05/25 04:24:00;;;;;;;0.80;0.80;;;14.30;99.90;;;;;;4959719;28;20097;-78
2022/05/25 04:26:28;;;;;;;1.95;1.00;;;14.30;99.90;;;;;;4975285;28;20388;-84
2022/05/25 04:28:54;;;;;;;2.50;0.80;;;14.20;99.90;;;;;;4975997;28;20035;-79
2022/05/25 04:31:19;;;;;;;1.70;0.80;;;14.20;99.90;;;;;;4976796;28;20027;-79
2022/05/25 04:33:45;;;;;;;4.03;0.90;;;14.20;99.90;;;;;;4975282;28;20483;-79
2022/05/25 04:36:11;;;;;;;2.22;0.93;;;14.20;99.90;;;;;;4975114;28;20487;-79
2022/05/25 04:38:36;;;;;;;1.25;0.90;;;14.20;99.90;;;;;;4975022;28;20026;-78
2022/05/25 04:41:02;;;;;;;2.72;1.45;;;14.20;99.90;;;;;;4975518;28;20030;-79
2022/05/25 04:43:28;;;;;;;4.55;1.33;;;14.10;99.90;;;;;;4975992;28;20027;-79
2022/05/25 04:45:54;;;;;;;1.55;0.95;;;14.20;99.90;;;;;;4959491;28;20023;-78
2022/05/25 04:48:23;;;;;;;0.95;0.73;;;14.10;99.90;;;;;;4975267;28;20027;-78
2022/05/25 04:50:50;;;;;;;2.40;0.82;;;14.10;99.90;;;;;;4975693;28;20127;-78
2022/05/25 04:53:18;;;;;;;1.30;0.70;;;14.10;99.90;;;;;;4976248;28;20027;-78
2022/05/25 04:58:33;;;;;;;1.88;0.77;;;14.00;99.90;;;;;;4975661;28;20435;-79
2022/05/25 05:00:59;;;;;;;2.00;0.70;;;14.00;99.90;;;;;;4974953;28;20022;-78
2022/05/25 05:03:26;;;;;;;1.60;0.88;;;14.00;99.90;;;;;;4974953;28;20066;-77
2022/05/25 05:05:53;;;;;;;1.33;0.73;;;14.00;99.90;;;;;;4975637;28;20093;-78
2022/05/25 05:08:19;;;;;;;2.55;1.00;;;14.00;99.90;;;;;;4974968;28;20027;-78
2022/05/25 05:10:44;;;;;;;1.58;0.77;;;13.90;99.90;;;;;;4973908;28;20109;-77
2022/05/25 05:13:11;;;;;;;1.60;0.68;;;14.00;99.90;;;;;;4974614;28;20081;-77
2022/05/25 05:15:43;;;;;;;3.35;0.75;;;13.90;99.90;;;;;;4973876;28;20461;-77
2022/05/25 05:18:09;;;;;;;2.83;0.80;;;14.00;99.90;;;;;;4974439;28;20034;-77
2022/05/25 05:20:35;;;;;;;2.72;1.10;;;14.00;99.90;;;;;;4974095;28;20058;-78
2022/05/25 05:23:01;;;;;;;1.30;1.00;;;14.00;99.90;;;;;;4974504;28;20031;-77
2022/05/25 05:25:27;;;;;;;1.80;0.77;;;14.10;99.90;;;;;;4974965;28;20043;-77
2022/05/25 05:27:53;;;;;;;3.35;1.00;;;14.10;99.90;;;;;;4973490;28;20511;-77
2022/05/25 05:30:21;;;;;;;1.73;0.82;;;14.20;99.90;;;;;;4974506;28;20054;-78
2022/05/25 05:32:48;;;;;;;2.15;0.90;;;14.20;99.90;;;;;;4973859;28;20086;-79
2022/05/25 05:35:13;;;;;;;1.00;0.80;;;14.30;99.90;;;;;;4975393;28;20026;-79
2022/05/25 05:37:46;;;;;;;2.10;1.00;;;14.30;99.90;;;;;;4957863;28;20480;-79
2022/05/25 05:40:16;;;;;;;3.83;1.13;;;14.30;99.90;;;;;;4974137;28;20058;-79
2022/05/25 05:42:45;;;;;;;2.45;1.08;;;14.30;99.90;;;;;;4974730;28;20370;-79
2022/05/25 05:45:20;;;;;;;3.65;1.23;;;14.30;99.90;;;;;;4957705;28;20027;-78
2022/05/25 05:47:54;;;;;;;3.28;1.20;;;14.30;99.90;;;;;;4973375;28;20023;-78
2022/05/25 05:50:22;;;;;;;2.95;1.00;;;14.40;99.90;;;;;;4975121;28;20050;-79
2022/05/25 05:52:49;;;;;;;2.40;1.20;;;14.50;99.90;;;;;;4957172;28;20078;-79
2022/05/25 05:55:15;;;;;;;2.00;1.10;;;14.50;99.90;;;;;;4973746;28;20061;-78
2022/05/25 05:57:41;;;;;;;2.45;0.95;;;14.50;99.90;;;;;;4973138;28;20456;-78
2022/05/25 06:00:08;;;;;;;1.80;1.10;;;14.50;99.90;;;;;;4973523;28;20023;-78
2022/05/25 06:02:34;;;;;;;4.00;0.77;;;14.60;99.90;;;;;;4973579;28;20031;-79
2022/05/25 06:04:59;;;;;;;2.50;0.90;;;14.60;99.90;;;;;;4972943;28;20027;-78
2022/05/25 06:07:25;;;;;;;2.63;0.75;;;14.60;99.90;;;;;;4956529;28;20031;-78
2022/05/25 06:09:51;;;;;;;3.50;0.90;;;14.60;99.90;;;;;;4972872;28;20022;-78
2022/05/25 06:12:16;;;;;;;2.53;0.82;;;14.70;99.90;;;;;;4973386;28;20042;-78
2022/05/25 06:14:42;;;;;;;2.55;0.88;;;14.80;99.90;;;;;;4967654;28;20035;-79
2022/05/25 06:19:52;;;;;;;5.57;0.80;;;14.90;99.90;;;;;;4974158;28;20186;-78
2022/05/25 06:22:20;;;;;;;1.70;0.70;;;14.90;99.90;;;;;;4973567;28;20062;-78
2022/05/25 06:24:48;;;;;;;0.60;0.60;;;15.00;99.90;;;;;;4973514;28;20496;-79
2022/05/25 06:27:16;;;;;;;1.10;0.73;;;15.00;99.90;;;;;;4974395;28;20051;-79
2022/05/25 06:29:44;;;;;;;4.95;0.90;;;15.00;99.90;;;;;;4973617;28;20038;-78
2022/05/25 06:32:11;;;;;;;2.95;1.00;;;15.10;99.90;;;;;;4973060;28;20436;-78
2022/05/25 06:34:39;;;;;;;1.98;0.88;;;15.20;99.90;;;;;;4972466;28;20031;-79
2022/05/25 06:37:05;;;;;;;2.67;0.80;;;15.20;99.90;;;;;;4973964;28;20038;-78
2022/05/25 06:39:37;;;;;;;1.65;0.70;;;15.20;99.90;;;;;;4972320;28;20491;-79
2022/05/25 06:42:05;;;;;;;2.38;0.93;;;15.30;99.90;;;;;;4973119;28;20117;-77
2022/05/25 06:44:31;;;;;;;4.72;0.82;;;15.30;99.90;;;;;;4973815;28;20027;-78
2022/05/25 06:46:57;;;;;;;1.45;0.90;;;15.30;99.90;;;;;;4972550;28;20031;-78
2022/05/25 06:49:22;;;;;;;2.28;0.68;;;15.40;99.90;;;;;;4974416;28;20061;-78
2022/05/25 06:51:48;;;;;;;6.03;1.10;;;15.40;99.90;;;;;;4972395;28;20046;-78
2022/05/25 06:54:15;;;;;;;2.03;0.90;;;15.50;99.90;;;;;;4973091;28;20026;-78
2022/05/25 06:56:41;;;;;;;1.80;0.88;;;15.50;99.90;;;;;;4972726;28;20030;-79
2022/05/25 06:59:07;;;;;;;1.08;0.90;;;15.50;99.90;;;;;;4974110;28;20027;-80
2022/05/25 07:01:35;;;;;;;1.55;0.80;;;15.60;99.90;;;;;;4973586;28;20065;-80
2022/05/25 07:04:00;;;;;;;1.67;0.90;;;15.70;99.90;;;;;;4972695;28;20034;-78
2022/05/25 07:06:27;;;;;;;2.83;1.13;;;15.70;99.90;;;;;;4951370;28;20410;-78
2022/05/25 07:08:54;;;;;;;0.98;0.90;;;15.70;99.90;;;;;;4972397;28;20511;-78
2022/05/25 07:11:21;;;;;;;3.95;1.30;;;15.80;99.90;;;;;;4975659;28;20029;-77
2022/05/25 07:13:47;;;;;;;3.42;1.13;;;15.80;99.90;;;;;;4972070;28;20035;-78
2022/05/25 07:16:16;;;;;;;2.60;1.05;;;15.90;99.90;;;;;;4972969;28;20031;-78
2022/05/25 07:18:43;;;;;;;1.73;0.85;;;15.90;99.90;;;;;;4972213;28;20055;-78
2022/05/25 07:21:12;;;;;;;1.75;0.80;;;16.00;99.90;;;;;;4972521;28;20037;-79
2022/05/25 07:23:40;;;;;;;4.28;1.10;;;16.10;99.90;;;;;;4961102;28;20035;-78
2022/05/25 07:26:07;;;;;;;2.15;0.60;;;16.10;99.90;;;;;;4972962;28;20034;-77
2022/05/25 07:28:34;;;;;;;1.85;0.80;;;16.00;99.80;;;;;;4969359;28;20062;-83
2022/05/25 07:31:10;;;;;;;1.92;0.77;;;16.10;99.90;;;;;;4971547;28;20058;-78
2022/05/25 07:33:39;;;;;;;2.28;0.80;;;16.20;99.90;;;;;;4970067;28;20035;-78
2022/05/25 07:36:08;;;;;;;5.15;1.30;;;16.20;99.40;;;;;;4972257;28;20018;-76
2022/05/25 07:38:34;;;;;;;2.08;0.82;;;16.30;99.20;;;;;;4970800;28;20165;-79
2022/05/25 07:41:01;;;;;;;1.25;0.70;;;16.30;98.70;;;;;;4973190;28;20105;-79
2022/05/25 07:43:30;;;;;;;2.78;0.90;;;16.30;98.50;;;;;;4972094;28;20038;-76
2022/05/25 07:45:56;;;;;;;1.38;0.75;;;16.40;97.90;;;;;;4965845;28;20034;-76
2022/05/25 07:48:21;;;;;;;2.88;0.73;;;16.40;97.30;;;;;;4971259;28;20428;-77
2022/05/25 07:50:47;;;;;;;2.45;0.82;;;16.40;97.70;;;;;;4965767;28;20023;-78
2022/05/25 07:56:03;;;;;;;2.00;0.80;;;16.50;97.80;;;;;;4969264;28;20113;-77
2022/05/25 07:58:30;;;;;;;1.85;0.88;;;16.50;97.50;;;;;;4971159;28;20023;-77
2022/05/25 08:00:58;;;;;;;2.92;0.85;;;16.60;97.00;;;;;;4969507;28;20034;-78
2022/05/25 08:06:09;;;;;;;2.60;0.80;;;16.50;96.70;;;;;;4977221;28;20030;-81
2022/05/25 08:08:36;;;;;;;1.95;0.85;;;16.60;96.70;;;;;;4975421;28;20472;-83
2022/05/25 08:11:08;;;;;;;1.73;0.68;;;16.60;96.20;;;;;;4976677;28;20034;-82
2022/05/25 08:13:40;;;;;;;7.60;0.88;;;16.70;95.80;;;;;;4975602;28;20034;-81
2022/05/25 08:16:08;;;;;;;5.20;0.90;;;16.80;96.00;;;;;;4977570;28;20034;-82
2022/05/25 08:18:34;;;;;;;2.33;0.80;;;16.80;95.60;;;;;;4976833;28;20039;-82
2022/05/25 08:21:00;;;;;;;1.35;0.60;;;16.80;95.10;;;;;;4977478;28;20031;-83
2022/05/25 08:23:26;;;;;;;3.00;0.77;;;16.80;95.00;;;;;;4974689;28;20019;-80
2022/05/25 08:25:52;;;;;;;3.58;1.20;;;16.90;95.50;;;;;;4959259;29;20062;-82
2022/05/25 08:28:18;;;;;;;2.58;1.08;;;17.00;94.70;;;;;;4959646;28;20078;-85
2022/05/25 08:30:45;;;;;;;1.27;0.52;;;17.00;93.70;;;;;;4979643;28;20030;-84
2022/05/25 08:33:11;;;;;;;2.17;0.70;;;17.00;93.50;;;;;;4970173;28;20046;-83
2022/05/25 08:35:37;;;;;;;2.83;0.60;;;17.10;93.40;;;;;;4984200;28;20025;-82
2022/05/25 08:38:03;;;;;;;1.60;0.68;;;17.20;93.40;;;;;;4984015;28;20062;-86
2022/05/25 08:40:32;;;;;;;2.95;0.57;;;17.30;93.00;;;;;;4975534;28;20046;-83
2022/05/25 08:43:22;;;;;;;2.10;0.63;;;17.30;92.70;;;;;;4973035;28;20440;-80
2022/05/25 08:45:51;;;;;;;2.42;0.90;;;17.20;93.30;;;;;;4963192;28;20473;-79
2022/05/25 08:48:20;;;;;;;3.13;0.80;;;17.30;93.50;;;;;;4957486;28;20491;-81
2022/05/25 08:50:52;;;;;;;5.90;1.83;;;17.40;93.00;;;;;;4978373;28;20035;-82
2022/05/25 08:53:21;;;;;;;3.95;1.33;;;17.70;93.10;;;;;;4944533;28;20031;-81
2022/05/25 08:56:17;;;;;;;4.68;1.20;;;17.80;92.90;;;;;;4977400;28;20113;-81
2022/05/25 08:58:52;;;;;;;5.38;1.15;;;18.00;92.70;;;;;;4963057;28;20047;-81
2022/05/25 09:01:32;;;;;;;1.35;0.73;;;18.10;91.70;;;;;;4958059;28;20023;-80
2022/05/25 09:04:07;;;;;;;2.58;0.90;;;18.10;91.80;;;;;;4963392;28;20032;-82
2022/05/25 09:06:57;;;;;;;1.85;0.73;;;18.20;91.70;;;;;;4977792;28;20058;-83
2022/05/25 09:09:40;;;;;;;2.95;0.82;;;18.20;90.30;;;;;;4976760;28;20106;-82
2022/05/25 09:12:20;;;;;;;2.63;0.63;;;18.30;89.70;;;;;;4981052;28;20035;-82
2022/05/25 09:14:58;;;;;;;2.17;0.80;;;18.30;89.30;;;;;;4982478;28;20031;-82
2022/05/25 09:17:35;;;;;;;1.40;0.70;;;18.20;89.70;;;;;;4973854;28;20110;-83
2022/05/25 09:20:03;;;;;;;2.30;0.57;;;18.30;90.00;;;;;;4980190;28;20023;-85
2022/05/25 09:22:31;;;;;;;0.70;0.60;;;18.20;89.60;;;;;;4981558;28;20042;-84
2022/05/25 09:24:59;;;;;;;4.50;1.10;;;18.40;89.90;;;;;;4954297;29;20047;-83
2022/05/25 09:27:29;;;;;;;3.00;0.50;;;18.40;88.80;;;;;;4943544;29;20028;-84
2022/05/25 09:29:58;;;;;;;1.63;0.52;;;18.40;89.00;;;;;;4940363;29;20438;-83
2022/05/25 09:32:44;;;;;;;5.43;0.70;;;18.40;87.60;;;;;;4958754;29;20065;-85
2022/05/25 09:35:18;;;;;;;2.40;0.65;;;18.50;87.30;;;;;;4937282;29;20028;-82
2022/05/25 09:37:53;;;;;;;1.52;0.60;;;18.50;86.10;;;;;;4920894;29;20050;-82
2022/05/25 09:40:33;;;;;;;5.22;0.80;;;18.70;85.60;;;;;;4962080;28;20027;-80
2022/05/25 09:43:03;;;;;;;2.72;0.60;;;18.80;84.80;;;;;;4959095;28;20038;-82
2022/05/25 09:45:55;;;;;;;1.10;0.75;;;18.70;84.40;;;;;;4958944;28;20416;-82
2022/05/25 09:48:26;;;;;;;4.03;1.48;;;18.70;84.80;;;;;;4963120;28;20432;-83
2022/05/25 09:51:04;;;;;;;;;;;18.70;84.60;;;;;;4941259;28;20051;-84
2022/05/25 09:53:44;;;;;;;4.28;1.10;;;18.70;82.70;;;;;;4956089;29;20029;-86
2022/05/25 09:56:39;;;;;;;1.67;0.80;;;18.80;82.30;;;;;;4931183;29;20031;-84
2022/05/25 09:59:42;;;;;;;3.42;0.65;;;18.90;82.60;;;;;;4928231;29;20023;-83
2022/05/25 10:02:20;;;;;;;2.38;0.70;;;19.00;82.90;;;;;;4886422;29;20132;-82
2022/05/25 10:04:56;;;;;;;1.23;0.70;;;19.20;80.10;;;;;;4941491;28;20035;-80
2022/05/25 10:07:34;;;;;;;4.07;0.70;;;19.20;80.80;;;;;;4957092;29;20030;-79
2022/05/25 10:10:09;;;;;;;4.25;0.60;;;19.20;80.40;;;;;;4961385;28;20039;-78
2022/05/25 10:12:43;;;;;;;2.53;0.38;;;19.10;80.00;;;;;;4939449;29;20041;-80
2022/05/25 10:15:26;;;;;;;2.55;0.50;;;19.10;76.90;;;;;;4949679;28;20023;-82
2022/05/25 10:17:53;;;;;;;1.17;0.45;;;19.00;77.00;;;;;;4955865;29;20027;-83
2022/05/25 10:20:30;;;;;;;1.63;0.60;;;18.80;76.40;;;;;;4955429;28;20039;-83
2022/05/25 10:23:07;;;;;;;1.90;0.50;;;18.70;75.30;;;;;;4955626;28;20273;-82
2022/05/25 10:25:53;;;;;;;0.95;0.75;;;18.80;75.20;;;;;;4959991;28;20054;-81
2022/05/25 10:28:28;;;;;;;1.10;0.70;;;18.80;75.00;;;;;;4976835;28;20078;-82
2022/05/25 10:36:56;;;;;;;1.15;0.50;;;18.90;69.10;;;;;;4974309;28;20157;-79
2022/05/25 10:39:30;;;;;;;0.75;0.73;;;18.90;70.20;;;;;;4961669;28;20011;-78
2022/05/25 10:42:01;;;;;;;2.80;0.40;;;19.00;70.90;;;;;;4953303;29;20050;-79
2022/05/25 10:44:44;;;;;;;3.15;0.35;;;19.20;71.40;;;;;;4972353;28;20063;-81
2022/05/25 10:47:24;;;;;;;1.65;0.43;;;19.30;71.00;;;;;;4973759;28;20098;-82
2022/05/25 10:49:52;;;;;;;2.83;0.60;;;19.30;70.30;;;;;;4972895;28;20027;-82
2022/05/25 10:52:35;;;;;;;1.42;0.40;;;19.20;70.70;;;;;;4957476;28;20035;-81
2022/05/25 10:55:04;;;;;;;2.75;1.10;;;19.20;69.40;;;;;;4958083;28;20445;-81
2022/05/25 10:58:08;;;;;;;3.13;0.70;;;19.30;70.30;;;;;;4976456;28;20019;-82
2022/05/25 11:00:55;;;;;;;0.73;0.35;;;19.40;67.90;;;;;;4974629;28;20027;-82
2022/05/25 11:03:26;;;;;;;1.50;0.40;;;19.50;68.50;;;;;;4976699;28;20058;-81
2022/05/25 11:06:13;;;;;;;;;;;19.60;68.40;;;;;;4961080;28;20049;-81
2022/05/25 11:09:12;;;;;;;0.73;0.40;;;19.80;66.90;;;;;;4973189;28;19965;-82
2022/05/25 11:12:09;;;;;;;1.25;0.40;;;19.90;65.20;;;;;;4966276;28;20380;-83
2022/05/25 11:15:01;;;;;;;2.33;0.25;;;20.10;64.40;;;;;;4974424;28;20065;-82
2022/05/25 11:17:38;;;;;;;0.88;0.30;;;20.10;65.40;;;;;;4974507;28;20070;-81
2022/05/25 11:20:18;;;;;;;0.88;0.30;;;20.20;65.30;;;;;;4957476;28;20027;-81
2022/05/25 11:22:56;;;;;;;1.83;0.30;;;20.20;65.30;;;;;;4972840;28;20038;-82
2022/05/25 11:25:57;;;;;;;1.05;0.20;;;20.20;64.40;;;;;;4973912;28;20043;-81
2022/05/25 11:29:03;;;;;;;1.15;0.20;;;20.30;64.80;;;;;;4977236;28;20089;-81
2022/05/25 11:32:10;;;;;;;2.03;0.30;;;20.20;63.50;;;;;;4965511;28;20445;-81
2022/05/25 11:34:57;;;;;;;0.57;0.28;;;20.20;63.40;;;;;;4976605;28;20030;-82
2022/05/25 11:37:47;;;;;;;1.92;0.20;;;20.20;64.30;;;;;;4957603;29;20109;-82
2022/05/25 11:40:35;;;;;;;0.75;0.20;;;20.40;63.10;;;;;;4957828;29;20495;-81
2022/05/25 11:43:27;;;;;;;0.68;0.38;;;20.60;61.00;;;;;;4961031;28;20070;-81
2022/05/25 11:46:02;;;;;;;0.45;0.20;;;20.60;62.70;;;;;;4960233;28;20029;-81
2022/05/25 11:48:58;;;;;;;0.47;0.10;;;20.70;64.00;;;;;;4957538;29;20031;-81
2022/05/25 11:51:24;;;;;;;0.63;0.20;;;20.80;63.40;;;;;;4964483;28;20456;-82
2022/05/25 11:54:26;;;;;;;1.90;0.30;;;20.70;61.90;;;;;;4956751;29;20039;-82
2022/05/25 11:57:10;;;;;;;;;;;20.70;60.80;;;;;;4958894;28;20084;-81
2022/05/25 12:00:09;;;;;;;1.27;0.30;;;20.80;60.40;;;;;;4977217;28;19902;-83
2022/05/25 12:02:56;;;;;;;2.90;0.20;;;21.10;60.30;;;;;;4959158;28;20534;-82
2022/05/25 12:06:00;;;;;;;0.20;0.10;;;21.20;60.20;;;;;;4959912;28;20027;-81
2022/05/25 12:08:32;;;;;;;1.73;0.30;;;21.30;60.00;;;;;;4957225;29;20105;-82
2022/05/25 12:11:07;;;;;;;2.85;0.20;;;21.50;60.70;;;;;;4956648;29;20027;-82
2022/05/25 12:13:43;;;;;;;1.85;0.20;;;21.40;60.00;;;;;;4964880;28;20055;-81
2022/05/25 12:16:27;;;;;;;0.73;0.20;;;21.40;59.70;;;;;;4969723;28;20023;-81
2022/05/25 12:19:13;;;;;;;2.55;0.30;;;21.50;58.50;;;;;;4958988;28;20035;-82
2022/05/25 12:21:47;;;;;;;2.13;0.25;;;21.70;58.30;;;;;;4975647;28;20026;-82
2022/05/25 12:24:20;;;;;;;1.45;0.30;;;21.70;59.10;;;;;;4976056;28;20054;-82
2022/05/25 12:26:46;;;;;;;1.88;0.30;;;21.70;58.00;;;;;;4975714;28;20030;-82
2022/05/25 12:29:41;;;;;;;1.17;0.17;;;21.60;58.30;;;;;;4976212;28;20400;-81
2022/05/25 12:32:08;;;;;;;0.63;0.25;;;21.70;58.10;;;;;;4958320;28;20042;-81
2022/05/25 12:35:03;;;;;;;2.47;0.45;;;21.70;58.10;;;;;;4975915;28;20050;-82
2022/05/25 12:37:53;;;;;;;0.65;0.22;;;21.80;55.10;;;;;;4963619;28;20487;-83
2022/05/25 12:40:30;;;;;;;1.23;0.10;;;22.00;54.70;;;;;;4977129;28;20019;-82
2022/05/25 12:42:56;;;;;;;2.13;0.20;;;22.40;55.10;;;;;;4976297;28;20034;-82
2022/05/25 12:48:35;;;;;;;0.30;0.10;;;22.60;53.30;;;;;;4976647;28;20089;-82
2022/05/25 12:51:49;;;;;;;0.57;0.15;;;22.50;54.20;;;;;;4960459;28;20175;-81
2022/05/25 12:54:22;;;;;;;0.10;0.10;;;22.70;53.80;;;;;;4970831;28;20039;-81
2022/05/25 12:56:49;;;;;;;0.13;0.10;;;22.80;53.80;;;;;;4970680;28;20081;-83
2022/05/25 12:59:31;;;;;;;0.73;0.10;;;22.90;53.10;;;;;;4979511;28;20053;-83
2022/05/25 13:02:22;;;;;;;0.65;0.10;;;23.20;53.50;;;;;;4964070;28;20035;-84
2022/05/25 13:04:52;;;;;;;1.35;0.15;;;23.30;52.40;;;;;;4958823;28;20473;-83
2022/05/25 13:07:39;;;;;;;0.40;0.10;;;23.70;52.30;;;;;;4975521;28;20026;-83
2022/05/25 13:10:20;;;;;;;0.20;0.10;;;23.90;51.30;;;;;;4956238;29;20114;-83
2022/05/25 13:12:52;;;;;;;0.52;0.13;;;23.60;50.80;;;;;;4957166;28;20039;-83
2022/05/25 13:15:17;;;;;;;1.27;0.20;;;23.80;50.90;;;;;;4975193;28;20026;-83
2022/05/25 13:17:56;;;;;;;0.85;0.10;;;23.90;51.00;;;;;;4975694;28;20026;-83
2022/05/25 13:20:27;;;;;;;0.82;0.10;;;24.00;50.70;;;;;;4975097;28;20027;-83
2022/05/25 13:22:55;;;;;;;1.77;0.10;;;24.10;48.90;;;;;;4975674;28;20106;-83
2022/05/25 13:25:53;;;;;;;1.50;0.20;;;24.20;49.80;;;;;;4976032;28;20066;-83
2022/05/25 13:28:54;;;;;;;0.40;0.15;;;23.70;48.60;;;;;;4975711;28;20031;-83
2022/05/25 13:31:30;;;;;;;0.10;0.10;;;23.20;49.90;;;;;;4956405;28;20037;-84
2022/05/25 13:33:58;;;;;;;0.15;0.15;;;22.90;51.00;;;;;;4977807;28;20096;-83
2022/05/25 13:36:26;;;;;;;0.95;0.22;;;23.90;50.20;;;;;;4959827;28;20082;-83
2022/05/25 13:38:59;;;;;;;0.20;0.17;;;24.70;47.80;;;;;;4974605;28;20026;-84
2022/05/25 13:41:42;;;;;;;0.20;0.10;;;24.90;47.20;;;;;;4975060;28;20376;-84